sensor_id;sensor_type;location;lat;lon;timestamp;pressure;altitude;pressure_sealevel;temperature;humidity
71774;BME280;59607;52.130;5.430;2023-11-19T00:02:00;100819.97;;;13.10;100.00
71774;BME280;59607;52.130;5.430;2023-11-19T00:04:30;100819.16;;;13.09;100.00
71774;BME280;59607;52.130;5.430;2023-11-19T00:07:03;100823.97;;;13.05;100.00
71774;BME280;59607;52.130;5.430;2023-11-19T00:09:35;100825.16;;;13.03;100.00
71774;BME280;59607;52.130;5.430;2023-11-19T00:12:06;100821.91;;;13.01;100.00
71774;BME280;59607;52.130;5.430;2023-11-19T00:14:36;100809.72;;;13.00;100.00
71774;BME280;59607;52.130;5.430;2023-11-19T00:17:02;100812.34;;;13.00;100.00
71774;BME280;59607;52.130;5.430;2023-11-19T00:19:44;100812.53;;;12.98;100.00
71774;BME280;59607;52.130;5.430;2023-11-19T00:22:17;100815.16;;;12.98;100.00
71774;BME280;59607;52.130;5.430;2023-11-19T00:24:43;100817.78;;;12.98;100.00
71774;BME280;59607;52.130;5.430;2023-11-19T00:27:25;100815.16;;;12.98;100.00
71774;BME280;59607;52.130;5.430;2023-11-19T00:29:59;100812.69;;;12.96;100.00
71774;BME280;59607;52.130;5.430;2023-11-19T00:32:25;100802.16;;;12.96;100.00
71774;BME280;59607;52.130;5.430;2023-11-19T00:34:55;100802.34;;;12.95;100.00
71774;BME280;59607;52.130;5.430;2023-11-19T00:37:30;100794.44;;;12.95;100.00
71774;BME280;59607;52.130;5.430;2023-11-19T00:40:00;100788.72;;;12.91;100.00
71774;BME280;59607;52.130;5.430;2023-11-19T00:42:26;100797.09;;;12.95;100.00
71774;BME280;59607;52.130;5.430;2023-11-19T00:44:53;100791.63;;;12.96;100.00
71774;BME280;59607;52.130;5.430;2023-11-19T00:47:20;100794.91;;;12.99;100.00
71774;BME280;59607;52.130;5.430;2023-11-19T00:49:49;100783.75;;;12.96;100.00
71774;BME280;59607;52.130;5.430;2023-11-19T00:52:17;100776.22;;;12.93;100.00
71774;BME280;59607;52.130;5.430;2023-11-19T00:54:44;100769.50;;;12.91;100.00
71774;BME280;59607;52.130;5.430;2023-11-19T00:57:16;100771.13;;;12.92;100.00
71774;BME280;59607;52.130;5.430;2023-11-19T00:59:43;100776.22;;;12.93;100.00
71774;BME280;59607;52.130;5.430;2023-11-19T01:02:16;100782.66;;;12.91;100.00
71774;BME280;59607;52.130;5.430;2023-11-19T01:04:43;100790.38;;;12.92;100.00
71774;BME280;59607;52.130;5.430;2023-11-19T01:07:13;100775.38;;;12.93;100.00
71774;BME280;59607;52.130;5.430;2023-11-19T01:09:43;100779.03;;;12.92;100.00
71774;BME280;59607;52.130;5.430;2023-11-19T01:12:12;100784.47;;;12.90;100.00
71774;BME280;59607;52.130;5.430;2023-11-19T01:14:42;100791.34;;;12.91;100.00
71774;BME280;59607;52.130;5.430;2023-11-19T01:17:09;100785.91;;;12.93;100.00
71774;BME280;59607;52.130;5.430;2023-11-19T01:19:35;100785.56;;;12.96;100.00
71774;BME280;59607;52.130;5.430;2023-11-19T01:22:07;100766.13;;;12.97;100.00
71774;BME280;59607;52.130;5.430;2023-11-19T01:24:34;100763.31;;;12.99;100.00
71774;BME280;59607;52.130;5.430;2023-11-19T01:27:05;100762.69;;;12.96;100.00
71774;BME280;59607;52.130;5.430;2023-11-19T01:29:35;100767.47;;;12.93;100.00
71774;BME280;59607;52.130;5.430;2023-11-19T01:32:07;100754.88;;;12.88;100.00
71774;BME280;59607;52.130;5.430;2023-11-19T01:34:34;100746.34;;;12.86;100.00
71774;BME280;59607;52.130;5.430;2023-11-19T01:37:00;100766.22;;;12.89;100.00
71774;BME280;59607;52.130;5.430;2023-11-19T01:39:35;100759.59;;;12.93;100.00
71774;BME280;59607;52.130;5.430;2023-11-19T01:42:02;100755.97;;;12.94;100.00
71774;BME280;59607;52.130;5.430;2023-11-19T01:44:28;100765.69;;;12.93;100.00
71774;BME280;59607;52.130;5.430;2023-11-19T01:47:01;100757.41;;;12.96;100.00
71774;BME280;59607;52.130;5.430;2023-11-19T01:49:27;100759.88;;;12.98;100.00
71774;BME280;59607;52.130;5.430;2023-11-19T01:52:03;100762.69;;;12.96;100.00
71774;BME280;59607;52.130;5.430;2023-11-19T01:54:29;100758.44;;;12.95;100.00
71774;BME280;59607;52.130;5.430;2023-11-19T01:57:05;100763.22;;;12.92;100.00
71774;BME280;59607;52.130;5.430;2023-11-19T01:59:32;100757.13;;;12.91;100.00
71774;BME280;59607;52.130;5.430;2023-11-19T02:02:02;100756.94;;;12.93;100.00
71774;BME280;59607;52.130;5.430;2023-11-19T02:04:29;100767.47;;;12.93;100.00
71774;BME280;59607;52.130;5.430;2023-11-19T02:06:57;100766.69;;;12.92;100.00
71774;BME280;59607;52.130;5.430;2023-11-19T02:09:24;100759.16;;;12.89;100.00
71774;BME280;59607;52.130;5.430;2023-11-19T02:11:54;100752.78;;;12.83;100.00
71774;BME280;59607;52.130;5.430;2023-11-19T02:14:25;100749.84;;;12.78;100.00
71774;BME280;59607;52.130;5.430;2023-11-19T02:16:56;100748.31;;;12.69;100.00
71774;BME280;59607;52.130;5.430;2023-11-19T02:19:22;100757.75;;;12.63;100.00
71774;BME280;59607;52.130;5.430;2023-11-19T02:21:54;100756.81;;;12.56;100.00
71774;BME280;59607;52.130;5.430;2023-11-19T02:24:28;100765.88;;;12.53;100.00
71774;BME280;59607;52.130;5.430;2023-11-19T02:27:16;100779.41;;;12.50;100.00
71774;BME280;59607;52.130;5.430;2023-11-19T02:29:48;100773.84;;;12.45;100.00
71774;BME280;59607;52.130;5.430;2023-11-19T02:32:16;100779.47;;;12.42;100.00
71774;BME280;59607;52.130;5.430;2023-11-19T02:34:46;100784.59;;;12.35;100.00
71774;BME280;59607;52.130;5.430;2023-11-19T02:37:12;100785.13;;;12.30;100.00
71774;BME280;59607;52.130;5.430;2023-11-19T02:39:43;100785.84;;;12.24;100.00
71774;BME280;59607;52.130;5.430;2023-11-19T02:42:12;100767.97;;;12.19;100.00
71774;BME280;59607;52.130;5.430;2023-11-19T02:44:44;100766.66;;;12.15;100.00
71774;BME280;59607;52.130;5.430;2023-11-19T02:47:11;100759.59;;;12.16;100.00
71774;BME280;59607;52.130;5.430;2023-11-19T02:49:38;100756.31;;;12.14;100.00
71774;BME280;59607;52.130;5.430;2023-11-19T02:52:08;100758.16;;;12.13;100.00
71774;BME280;59607;52.130;5.430;2023-11-19T02:54:39;100745.78;;;12.14;100.00
71774;BME280;59607;52.130;5.430;2023-11-19T02:57:12;100749.25;;;12.14;100.00
71774;BME280;59607;52.130;5.430;2023-11-19T02:59:45;100765.69;;;12.16;100.00
71774;BME280;59607;52.130;5.430;2023-11-19T03:02:14;100760.41;;;12.16;100.00
71774;BME280;59607;52.130;5.430;2023-11-19T03:04:44;100758.75;;;12.15;100.00
71774;BME280;59607;52.130;5.430;2023-11-19T03:07:12;100758.34;;;12.03;100.00
71774;BME280;59607;52.130;5.430;2023-11-19T03:09:45;100761.50;;;11.99;100.00
71774;BME280;59607;52.130;5.430;2023-11-19T03:12:15;100758.56;;;11.93;100.00
71774;BME280;59607;52.130;5.430;2023-11-19T03:14:41;100757.59;;;11.86;100.00
71774;BME280;59607;52.130;5.430;2023-11-19T03:17:10;100767.50;;;11.84;100.00
71774;BME280;59607;52.130;5.430;2023-11-19T03:19:37;100770.59;;;11.79;100.00
71774;BME280;59607;52.130;5.430;2023-11-19T03:22:11;100762.28;;;11.76;100.00
71774;BME280;59607;52.130;5.430;2023-11-19T03:24:37;100772.13;;;11.73;100.00
71774;BME280;59607;52.130;5.430;2023-11-19T03:27:07;100772.00;;;11.67;100.00
71774;BME280;59607;52.130;5.430;2023-11-19T03:29:33;100767.91;;;11.64;100.00
71774;BME280;59607;52.130;5.430;2023-11-19T03:32:00;100763.34;;;11.58;100.00
71774;BME280;59607;52.130;5.430;2023-11-19T03:34:29;100765.31;;;11.56;100.00
71774;BME280;59607;52.130;5.430;2023-11-19T03:36:59;100759.75;;;11.51;100.00
71774;BME280;59607;52.130;5.430;2023-11-19T03:39:25;100752.38;;;11.46;100.00
71774;BME280;59607;52.130;5.430;2023-11-19T03:42:00;100753.72;;;11.42;100.00
71774;BME280;59607;52.130;5.430;2023-11-19T03:44:27;100748.00;;;11.38;100.00
71774;BME280;59607;52.130;5.430;2023-11-19T03:46:59;100736.81;;;11.36;100.00
71774;BME280;59607;52.130;5.430;2023-11-19T03:49:28;100750.97;;;11.35;100.00
71774;BME280;59607;52.130;5.430;2023-11-19T03:51:54;100760.97;;;11.31;100.00
71774;BME280;59607;52.130;5.430;2023-11-19T03:54:27;100758.19;;;11.25;100.00
71774;BME280;59607;52.130;5.430;2023-11-19T03:56:54;100765.59;;;11.21;100.00
71774;BME280;59607;52.130;5.430;2023-11-19T03:59:23;100770.03;;;11.20;100.00
71774;BME280;59607;52.130;5.430;2023-11-19T04:01:51;100768.88;;;11.15;100.00
71774;BME280;59607;52.130;5.430;2023-11-19T04:04:28;100776.94;;;11.13;100.00
71774;BME280;59607;52.130;5.430;2023-11-19T04:06:58;100782.69;;;11.08;100.00
71774;BME280;59607;52.130;5.430;2023-11-19T04:09:34;100781.88;;;11.08;100.00
71774;BME280;59607;52.130;5.430;2023-11-19T04:12:01;100779.25;;;11.08;100.00
71774;BME280;59607;52.130;5.430;2023-11-19T04:14:31;100771.19;;;11.09;100.00
71774;BME280;59607;52.130;5.430;2023-11-19T04:16:58;100786.94;;;11.09;100.00
71774;BME280;59607;52.130;5.430;2023-11-19T04:19:24;100779.25;;;11.08;100.00
71774;BME280;59607;52.130;5.430;2023-11-19T04:21:57;100777.44;;;11.08;100.00
71774;BME280;59607;52.130;5.430;2023-11-19T04:24:32;100780.91;;;11.09;100.00
71774;BME280;59607;52.130;5.430;2023-11-19T04:27:03;100790.72;;;11.07;100.00
71774;BME280;59607;52.130;5.430;2023-11-19T04:29:30;100795.00;;;11.08;100.00
71774;BME280;59607;52.130;5.430;2023-11-19T04:31:57;100781.22;;;11.06;100.00
71774;BME280;59607;52.130;5.430;2023-11-19T04:34:29;100781.22;;;11.06;100.00
71774;BME280;59607;52.130;5.430;2023-11-19T04:36:57;100784.03;;;11.04;100.00
71774;BME280;59607;52.130;5.430;2023-11-19T04:39:37;100783.53;;;11.01;100.00
71774;BME280;59607;52.130;5.430;2023-11-19T04:42:22;100787.31;;;10.98;100.00
71774;BME280;59607;52.130;5.430;2023-11-19T04:45:08;100788.47;;;10.95;100.00
71774;BME280;59607;52.130;5.430;2023-11-19T04:47:39;100794.19;;;10.91;100.00
71774;BME280;59607;52.130;5.430;2023-11-19T04:50:09;100795.03;;;10.91;100.00
71774;BME280;59607;52.130;5.430;2023-11-19T04:52:38;100789.78;;;10.91;100.00
71774;BME280;59607;52.130;5.430;2023-11-19T04:55:06;100777.63;;;10.90;100.00
71774;BME280;59607;52.130;5.430;2023-11-19T04:57:41;100772.38;;;10.90;100.00
71774;BME280;59607;52.130;5.430;2023-11-19T05:00:09;100772.88;;;10.85;100.00
71774;BME280;59607;52.130;5.430;2023-11-19T05:02:59;100780.13;;;10.83;100.00
71774;BME280;59607;52.130;5.430;2023-11-19T05:05:28;100774.88;;;10.83;100.00
71774;BME280;59607;52.130;5.430;2023-11-19T05:07:56;100783.88;;;10.81;100.00
71774;BME280;59607;52.130;5.430;2023-11-19T05:10:26;100794.72;;;10.78;100.00
71774;BME280;59607;52.130;5.430;2023-11-19T05:12:52;100799.28;;;10.76;100.00
71774;BME280;59607;52.130;5.430;2023-11-19T05:15:19;100794.22;;;10.74;100.00
71774;BME280;59607;52.130;5.430;2023-11-19T05:17:51;100803.25;;;10.80;100.00
71774;BME280;59607;52.130;5.430;2023-11-19T05:20:18;100797.81;;;10.81;100.00
71774;BME280;59607;52.130;5.430;2023-11-19T05:22:55;100789.28;;;10.79;100.00
71774;BME280;59607;52.130;5.430;2023-11-19T05:25:21;100792.91;;;10.78;100.00
71774;BME280;59607;52.130;5.430;2023-11-19T05:27:51;100787.34;;;10.73;100.00
71774;BME280;59607;52.130;5.430;2023-11-19T05:30:21;100781.25;;;10.72;100.00
71774;BME280;59607;52.130;5.430;2023-11-19T05:32:52;100785.22;;;10.68;100.00
71774;BME280;59607;52.130;5.430;2023-11-19T05:35:21;100791.59;;;10.66;100.00
71774;BME280;59607;52.130;5.430;2023-11-19T05:37:48;100788.34;;;10.64;100.00
71774;BME280;59607;52.130;5.430;2023-11-19T05:40:22;100788.50;;;10.62;100.00
71774;BME280;59607;52.130;5.430;2023-11-19T05:42:49;100800.94;;;10.60;100.00
71774;BME280;59607;52.130;5.430;2023-11-19T05:45:25;100791.44;;;10.59;100.00
71774;BME280;59607;52.130;5.430;2023-11-19T05:47:51;100795.88;;;10.58;100.00
71774;BME280;59607;52.130;5.430;2023-11-19T05:50:18;100794.06;;;10.59;100.00
71774;BME280;59607;52.130;5.430;2023-11-19T05:52:48;100801.28;;;10.57;100.00
71774;BME280;59607;52.130;5.430;2023-11-19T05:55:14;100792.06;;;10.53;100.00
71774;BME280;59607;52.130;5.430;2023-11-19T05:57:47;100798.16;;;10.53;100.00
71774;BME280;59607;52.130;5.430;2023-11-19T06:00:16;100802.56;;;10.53;100.00
71774;BME280;59607;52.130;5.430;2023-11-19T06:02:49;100806.84;;;10.54;100.00
71774;BME280;59607;52.130;5.430;2023-11-19T06:05:31;100800.59;;;10.55;100.00
71774;BME280;59607;52.130;5.430;2023-11-19T06:08:00;100801.44;;;10.55;100.00
71774;BME280;59607;52.130;5.430;2023-11-19T06:10:27;100802.44;;;10.54;100.00
71774;BME280;59607;52.130;5.430;2023-11-19T06:13:06;100790.78;;;10.57;100.00
71774;BME280;59607;52.130;5.430;2023-11-19T06:15:45;100791.94;;;10.54;100.00
71774;BME280;59607;52.130;5.430;2023-11-19T06:18:12;100787.50;;;10.55;100.00
71774;BME280;59607;52.130;5.430;2023-11-19T06:20:43;100798.50;;;10.58;100.00
71774;BME280;59607;52.130;5.430;2023-11-19T06:23:10;100800.44;;;10.56;100.00
71774;BME280;59607;52.130;5.430;2023-11-19T06:25:37;100805.06;;;10.54;100.00
71774;BME280;59607;52.130;5.430;2023-11-19T06:28:08;100810.13;;;10.56;100.00
71774;BME280;59607;52.130;5.430;2023-11-19T06:30:34;100815.69;;;10.53;100.00
71774;BME280;59607;52.130;5.430;2023-11-19T06:33:04;100811.75;;;10.48;100.00
71774;BME280;59607;52.130;5.430;2023-11-19T06:35:31;100816.34;;;10.46;100.00
71774;BME280;59607;52.130;5.430;2023-11-19T06:38:08;100815.50;;;10.46;100.00
71774;BME280;59607;52.130;5.430;2023-11-19T06:40:43;100806.81;;;10.45;100.00
71774;BME280;59607;52.130;5.430;2023-11-19T06:43:15;100815.66;;;10.44;100.00
71774;BME280;59607;52.130;5.430;2023-11-19T06:45:42;100815.66;;;10.44;100.00
71774;BME280;59607;52.130;5.430;2023-11-19T06:48:08;100819.09;;;10.45;100.00
71774;BME280;59607;52.130;5.430;2023-11-19T06:50:40;100826.47;;;10.41;100.00
71774;BME280;59607;52.130;5.430;2023-11-19T06:53:07;100829.09;;;10.41;100.00
71774;BME280;59607;52.130;5.430;2023-11-19T06:55:53;100821.72;;;10.45;100.00
71774;BME280;59607;52.130;5.430;2023-11-19T06:58:24;100828.47;;;10.47;100.00
71774;BME280;59607;52.130;5.430;2023-11-19T07:00:51;100834.19;;;10.51;100.00
71774;BME280;59607;52.130;5.430;2023-11-19T07:03:20;100822.59;;;10.54;100.00
71774;BME280;59607;52.130;5.430;2023-11-19T07:05:47;100833.56;;;10.57;100.00
71774;BME280;59607;52.130;5.430;2023-11-19T07:08:14;100838.66;;;10.59;100.00
71774;BME280;59607;52.130;5.430;2023-11-19T07:10:49;100837.50;;;10.61;100.00
71774;BME280;59607;52.130;5.430;2023-11-19T07:13:15;100832.09;;;10.63;100.00
71774;BME280;59607;52.130;5.430;2023-11-19T07:15:42;100828.63;;;10.63;100.00
71774;BME280;59607;52.130;5.430;2023-11-19T07:18:29;100845.19;;;10.63;100.00
71774;BME280;59607;52.130;5.430;2023-11-19T07:20:55;100849.78;;;10.61;100.00
71774;BME280;59607;52.130;5.430;2023-11-19T07:23:21;100853.91;;;10.64;100.00
71774;BME280;59607;52.130;5.430;2023-11-19T07:25:54;100862.41;;;10.66;100.00
71774;BME280;59607;52.130;5.430;2023-11-19T07:28:23;100864.06;;;10.67;100.00
71774;BME280;59607;52.130;5.430;2023-11-19T07:30:49;100854.88;;;10.71;100.00
71774;BME280;59607;52.130;5.430;2023-11-19T07:33:21;100856.84;;;10.77;100.00
71774;BME280;59607;52.130;5.430;2023-11-19T07:35:48;100860.13;;;10.79;100.00
71774;BME280;59607;52.130;5.430;2023-11-19T07:38:15;100865.22;;;10.81;100.00
71774;BME280;59607;52.130;5.430;2023-11-19T07:40:47;100868.66;;;10.81;100.00
71774;BME280;59607;52.130;5.430;2023-11-19T07:43:23;100861.75;;;10.80;100.00
71774;BME280;59607;52.130;5.430;2023-11-19T07:45:51;100860.97;;;10.80;100.00
71774;BME280;59607;52.130;5.430;2023-11-19T07:48:18;100859.13;;;10.80;100.00
71774;BME280;59607;52.130;5.430;2023-11-19T07:50:52;100857.00;;;10.84;100.00
71774;BME280;59607;52.130;5.430;2023-11-19T07:53:20;100865.56;;;10.86;100.00
71774;BME280;59607;52.130;5.430;2023-11-19T07:55:50;100867.84;;;10.89;100.00
71774;BME280;59607;52.130;5.430;2023-11-19T07:58:19;100861.28;;;10.93;100.00
71774;BME280;59607;52.130;5.430;2023-11-19T08:00:52;100858.34;;;10.96;100.00
71774;BME280;59607;52.130;5.430;2023-11-19T08:03:20;100851.28;;;10.97;100.00
71774;BME280;59607;52.130;5.430;2023-11-19T08:05:55;100847.84;;;10.96;100.00
71774;BME280;59607;52.130;5.430;2023-11-19T08:08:25;100859.81;;;10.99;100.00
71774;BME280;59607;52.130;5.430;2023-11-19T08:10:53;100861.44;;;11.00;100.00
71774;BME280;59607;52.130;5.430;2023-11-19T08:13:42;100865.56;;;11.03;100.00
71774;BME280;59607;52.130;5.430;2023-11-19T08:16:09;100859.47;;;11.02;100.00
71774;BME280;59607;52.130;5.430;2023-11-19T08:18:36;100856.03;;;11.02;100.00
71774;BME280;59607;52.130;5.430;2023-11-19T08:21:08;100866.69;;;11.00;100.00
71774;BME280;59607;52.130;5.430;2023-11-19T08:23:38;100860.94;;;11.05;100.00
71774;BME280;59607;52.130;5.430;2023-11-19T08:26:09;100857.69;;;11.11;100.00
71774;BME280;59607;52.130;5.430;2023-11-19T08:28:37;100844.56;;;11.11;100.00
71774;BME280;59607;52.130;5.430;2023-11-19T08:31:06;100854.22;;;11.10;100.00
71774;BME280;59607;52.130;5.430;2023-11-19T08:33:33;100863.56;;;11.13;100.00
71774;BME280;59607;52.130;5.430;2023-11-19T08:35:59;100858.13;;;11.23;100.00
71774;BME280;59607;52.130;5.430;2023-11-19T08:38:30;100865.69;;;11.26;100.00
71774;BME280;59607;52.130;5.430;2023-11-19T08:40:57;100863.22;;;11.25;100.00
71774;BME280;59607;52.130;5.430;2023-11-19T08:43:29;100868.63;;;11.31;100.00
71774;BME280;59607;52.130;5.430;2023-11-19T08:46:00;100867.97;;;11.38;100.00
71774;BME280;59607;52.130;5.430;2023-11-19T08:48:26;100872.53;;;11.44;100.00
71774;BME280;59607;52.130;5.430;2023-11-19T08:50:56;100875.31;;;11.51;100.00
71774;BME280;59607;52.130;5.430;2023-11-19T08:53:23;100871.22;;;11.56;100.00
71774;BME280;59607;52.130;5.430;2023-11-19T08:55:50;100875.97;;;11.61;100.00
71774;BME280;59607;52.130;5.430;2023-11-19T08:58:20;100875.13;;;11.60;100.00
71774;BME280;59607;52.130;5.430;2023-11-19T09:00:47;100869.72;;;11.62;100.00
71774;BME280;59607;52.130;5.430;2023-11-19T09:03:14;100883.66;;;11.71;100.00
71774;BME280;59607;52.130;5.430;2023-11-19T09:05:41;100872.13;;;11.80;100.00
71774;BME280;59607;52.130;5.430;2023-11-19T09:08:08;100866.84;;;11.89;100.00
71774;BME280;59607;52.130;5.430;2023-11-19T09:10:38;100871.41;;;11.95;100.00
71774;BME280;59607;52.130;5.430;2023-11-19T09:13:04;100867.44;;;11.99;100.00
71774;BME280;59607;52.130;5.430;2023-11-19T09:15:35;100875.31;;;11.99;100.00
71774;BME280;59607;52.130;5.430;2023-11-19T09:18:02;100867.44;;;11.99;100.00
71774;BME280;59607;52.130;5.430;2023-11-19T09:20:28;100866.56;;;12.07;100.00
71774;BME280;59607;52.130;5.430;2023-11-19T09:22:59;100870.72;;;12.09;100.00
71774;BME280;59607;52.130;5.430;2023-11-19T09:25:25;100863.50;;;12.03;100.00
71774;BME280;59607;52.130;5.430;2023-11-19T09:27:53;100872.34;;;12.02;100.00
71774;BME280;59607;52.130;5.430;2023-11-19T09:30:25;100872.00;;;12.05;100.00
71774;BME280;59607;52.130;5.430;2023-11-19T09:32:52;100868.41;;;12.06;100.00
71774;BME280;59607;52.130;5.430;2023-11-19T09:35:18;100867.09;;;12.11;100.00
71774;BME280;59607;52.130;5.430;2023-11-19T09:37:47;100876.28;;;12.15;100.00
71774;BME280;59607;52.130;5.430;2023-11-19T09:40:14;100870.03;;;12.16;100.00
71774;BME280;59607;52.130;5.430;2023-11-19T09:42:44;100867.88;;;12.19;100.00
71774;BME280;59607;52.130;5.430;2023-11-19T09:45:27;100859.41;;;12.32;100.00
71774;BME280;59607;52.130;5.430;2023-11-19T09:48:00;100869.09;;;12.32;100.00
71774;BME280;59607;52.130;5.430;2023-11-19T09:50:34;100863.31;;;12.37;100.00
71774;BME280;59607;52.130;5.430;2023-11-19T09:53:01;100865.13;;;12.36;100.00
71774;BME280;59607;52.130;5.430;2023-11-19T09:55:30;100860.53;;;12.38;100.00
71774;BME280;59607;52.130;5.430;2023-11-19T09:58:01;100846.22;;;12.41;100.00
71774;BME280;59607;52.130;5.430;2023-11-19T10:00:27;100839.94;;;12.42;100.00
71774;BME280;59607;52.130;5.430;2023-11-19T10:02:57;100852.09;;;12.43;100.00
71774;BME280;59607;52.130;5.430;2023-11-19T10:05:27;100846.13;;;12.49;100.00
71774;BME280;59607;52.130;5.430;2023-11-19T10:07:57;100850.56;;;12.57;100.00
71774;BME280;59607;52.130;5.430;2023-11-19T10:10:24;100844.22;;;12.66;100.00
71774;BME280;59607;52.130;5.430;2023-11-19T10:12:51;100848.78;;;12.73;100.00
71774;BME280;59607;52.130;5.430;2023-11-19T10:15:22;100840.16;;;12.79;100.00
71774;BME280;59607;52.130;5.430;2023-11-19T10:18:04;100837.28;;;12.89;100.00
71774;BME280;59607;52.130;5.430;2023-11-19T10:20:37;100837.22;;;12.97;100.00
71774;BME280;59607;52.130;5.430;2023-11-19T10:23:10;100828.97;;;13.00;100.00
71774;BME280;59607;52.130;5.430;2023-11-19T10:25:38;100825.34;;;13.16;100.00
71774;BME280;59607;52.130;5.430;2023-11-19T10:28:05;100821.09;;;13.30;100.00
71774;BME280;59607;52.130;5.430;2023-11-19T10:30:36;100837.72;;;13.31;100.00
71774;BME280;59607;52.130;5.430;2023-11-19T10:33:04;100811.28;;;13.39;100.00
71774;BME280;59607;52.130;5.430;2023-11-19T10:35:58;100825.34;;;13.47;100.00
71774;BME280;59607;52.130;5.430;2023-11-19T10:38:28;100825.81;;;13.50;100.00
71774;BME280;59607;52.130;5.430;2023-11-19T10:41:02;100818.91;;;13.49;100.00
71774;BME280;59607;52.130;5.430;2023-11-19T10:43:29;100822.28;;;13.43;100.00
71774;BME280;59607;52.130;5.430;2023-11-19T10:46:10;100818.38;;;13.39;100.00
71774;BME280;59607;52.130;5.430;2023-11-19T10:48:45;100832.75;;;13.51;100.00
71774;BME280;59607;52.130;5.430;2023-11-19T10:51:13;100816.56;;;13.69;100.00
71774;BME280;59607;52.130;5.430;2023-11-19T10:53:48;100822.63;;;13.85;100.00
71774;BME280;59607;52.130;5.430;2023-11-19T10:56:23;100816.44;;;13.93;100.00
71774;BME280;59607;52.130;5.430;2023-11-19T10:59:00;100814.22;;;13.97;100.00
71774;BME280;59607;52.130;5.430;2023-11-19T11:01:48;100814.03;;;13.98;100.00
71774;BME280;59607;52.130;5.430;2023-11-19T11:04:25;100818.06;;;13.94;100.00
71774;BME280;59607;52.130;5.430;2023-11-19T11:06:55;100817.31;;;14.00;100.00
71774;BME280;59607;52.130;5.430;2023-11-19T11:09:22;100824.44;;;14.00;100.00
71774;BME280;59607;52.130;5.430;2023-11-19T11:11:59;100822.50;;;13.93;100.00
71774;BME280;59607;52.130;5.430;2023-11-19T11:14:26;100825.19;;;13.78;100.00
71774;BME280;59607;52.130;5.430;2023-11-19T11:17:04;100822.38;;;13.65;100.00
71774;BME280;59607;52.130;5.430;2023-11-19T11:19:36;100818.03;;;13.72;100.00
71774;BME280;59607;52.130;5.430;2023-11-19T11:22:06;100831.34;;;13.86;100.00
71774;BME280;59607;52.130;5.430;2023-11-19T11:30:46;100807.91;;;13.76;100.00
71774;BME280;59607;52.130;5.430;2023-11-19T11:33:32;100819.00;;;13.71;100.00
71774;BME280;59607;52.130;5.430;2023-11-19T11:36:31;100816.44;;;13.78;100.00
71774;BME280;59607;52.130;5.430;2023-11-19T11:39:12;100812.09;;;13.85;100.00
71774;BME280;59607;52.130;5.430;2023-11-19T11:41:39;100809.97;;;13.80;100.00
71774;BME280;59607;52.130;5.430;2023-11-19T11:44:08;100818.03;;;13.72;100.00
71774;BME280;59607;52.130;5.430;2023-11-19T11:46:55;100824.19;;;13.64;100.00
71774;BME280;59607;52.130;5.430;2023-11-19T11:49:31;100809.00;;;13.66;100.00
71774;BME280;59607;52.130;5.430;2023-11-19T11:51:58;100810.16;;;13.79;100.00
71774;BME280;59607;52.130;5.430;2023-11-19T11:54:28;100817.28;;;13.78;100.00
71774;BME280;59607;52.130;5.430;2023-11-19T11:57:02;100806.38;;;13.66;100.00
71774;BME280;59607;52.130;5.430;2023-11-19T12:02:09;100809.56;;;13.62;100.00
71774;BME280;59607;52.130;5.430;2023-11-19T12:04:51;100805.13;;;13.62;100.00
71774;BME280;59607;52.130;5.430;2023-11-19T12:07:21;100805.75;;;13.64;100.00
71774;BME280;59607;52.130;5.430;2023-11-19T12:10:09;100793.31;;;13.58;100.00
71774;BME280;59607;52.130;5.430;2023-11-19T12:12:40;100793.56;;;13.48;100.00
71774;BME280;59607;52.130;5.430;2023-11-19T12:15:10;100793.81;;;13.38;100.00
71774;BME280;59607;52.130;5.430;2023-11-19T12:17:41;100794.84;;;13.37;100.00
71774;BME280;59607;52.130;5.430;2023-11-19T12:20:13;100784.56;;;13.42;100.00
71774;BME280;59607;52.130;5.430;2023-11-19T12:22:41;100782.16;;;13.56;100.00
71774;BME280;59607;52.130;5.430;2023-11-19T12:25:12;100785.66;;;13.63;100.00
71774;BME280;59607;52.130;5.430;2023-11-19T12:27:52;100772.88;;;13.60;100.00
71774;BME280;59607;52.130;5.430;2023-11-19T12:30:22;100789.59;;;13.52;100.00
71774;BME280;59607;52.130;5.430;2023-11-19T12:32:55;100792.84;;;13.54;100.00
71774;BME280;59607;52.130;5.430;2023-11-19T12:35:30;100791.09;;;13.47;100.00
71774;BME280;59607;52.130;5.430;2023-11-19T12:38:02;100789.75;;;13.36;100.00
71774;BME280;59607;52.130;5.430;2023-11-19T12:40:28;100792.75;;;13.32;100.00
71774;BME280;59607;52.130;5.430;2023-11-19T12:42:55;100797.19;;;13.32;100.00
71774;BME280;59607;52.130;5.430;2023-11-19T12:45:39;100802.66;;;13.30;100.00
71774;BME280;59607;52.130;5.430;2023-11-19T12:48:09;100798.03;;;13.32;100.00
71774;BME280;59607;52.130;5.430;2023-11-19T12:50:54;100793.03;;;13.38;100.00
71774;BME280;59607;52.130;5.430;2023-11-19T12:53:26;100787.75;;;13.38;100.00
71774;BME280;59607;52.130;5.430;2023-11-19T12:55:55;100789.94;;;13.34;100.00
71774;BME280;59607;52.130;5.430;2023-11-19T12:58:35;100795.38;;;13.32;100.00
71774;BME280;59607;52.130;5.430;2023-11-19T13:01:09;100790.59;;;13.36;100.00
71774;BME280;59607;52.130;5.430;2023-11-19T13:03:41;100799.09;;;13.38;100.00
71774;BME280;59607;52.130;5.430;2023-11-19T13:06:13;100792.22;;;13.37;100.00
71774;BME280;59607;52.130;5.430;2023-11-19T13:09:03;100799.09;;;13.38;100.00